Flight Track Log - Related Links

Times and Time Zones

All times are in EDT time to prevent confusion due to time zone crossing. See the N319EE flight status page for this flight to view local times or setup timezone preferences in your user account.

Time Position Orientation Groundspeed Altitude Reporting Facility
EDT Latitude Longitude Course Direction KTS MPH feet Rate Location/Type
Fri 05:08:05 PM 43.0958 -77.7192 221° Southwest 171 197 3,700  Level Cleveland Center
Fri 05:09:04 PM 43.0664 -77.6792 135° Southeast 200 230 5,400 2,281 Climbing Cleveland Center
Fri 05:10:06 PM 43.0331 -77.6097 123° Southeast 193 222 8,300 2,244 Climbing Cleveland Center
Fri 05:11:07 PM 43.0022 -77.5475 124° Southeast 196 226 10,000 1,317 Climbing Cleveland Center
Fri 05:12:09 PM 42.9661 -77.4764 125° Southeast 211 243 11,000 484 Climbing Cleveland Center
Fri 05:13:11 PM 42.9103 -77.4169 142° Southeast 258 297 11,000  Level Cleveland Center
Fri 05:14:12 PM 42.8458 -77.3769 156° South 252 290 11,000  Level Cleveland Center
Fri 05:15:14 PM 42.7811 -77.3375 156° South 252 290 11,000  Level Cleveland Center
Fri 05:16:15 PM 42.7169 -77.2961 155° Southeast 252 290 11,000  Level Cleveland Center
Fri 05:17:17 PM 42.6494 -77.2547 156° South 259 298 11,000  Level Cleveland Center
Fri 05:18:18 PM 42.5817 -77.2136 156° South 261 300 11,000  Level Cleveland Center
Fri 05:19:20 PM 42.5114 -77.1719 156° South 267 307 11,000  Level Cleveland Center
Fri 05:20:22 PM 42.4286 -77.1239 157° South 269 310 11,000  Level Cleveland Center
Fri 05:21:23 PM 42.3614 -77.0844 157° South 269 310 11,000  Level Cleveland Center
Fri 05:22:25 PM 42.2972 -77.0378 152° Southeast 268 308 11,000 -439 Level Cleveland Center
Fri 05:23:26 PM 42.2461 -76.9600 132° Southeast 262 302 10,100 -1,024 Descending Cleveland Center
Fri 05:24:28 PM 42.1986 -76.8764 127° Southeast 279 321 8,900 -532 Descending Cleveland Center
Fri 05:25:30 PM 42.1647 -76.7947 119° Southeast 255 293 9,000 49 Climbing Cleveland Center
Fri 05:26:31 PM 42.1350 -76.7083 115° Southeast 259 298 9,000 -98 Level Cleveland Center
Fri 05:27:33 PM 42.1078 -76.6050 110° East 248 285 8,800 -1,330 Descending Cleveland Center
Fri 05:29:36 PM 42.1133 -76.4078 88° East 276 318 4,900 -1,557 Descending Cleveland Center
Fri 05:30:38 PM 42.1525 -76.3228 58° Northeast 268 308 4,000 -439 Descending Cleveland Center
Fri 05:31:39 PM 42.1961 -76.2578 48° Northeast 255 293 4,000 -178 Level Cleveland Center
Fri 05:34:00 PM 42.2589 -76.0717 65° Northeast 230 265 3,400 -358 Descending New York Center
Fri 05:35:00 PM 42.2792 -75.9922 71° East 207 238 2,800 -600 Descending New York Center

Login

Don't have an account? Register now (free) for customized features, flight alerts, and more!